Time;durP1;ratioP1;P1;durP2;ratioP2;P2;SDS_P1;SDS_P2;PMS_P1;PMS_P2;Temp;Humidity;BMP_temperature;BMP_pressure;BME280_temperature;BME280_humidity;BME280_pressure;Samples;Min_cycle;Max_cycle;Signal;HPM_P1;HPM_P2
2022/11/13 00:01:16;;;;;;;73.43;49.40;;;;;;;4.78;100.00;102092.41;5108642;28;20028;-65
2022/11/13 00:03:42;;;;;;;73.15;48.47;;;;;;;4.69;100.00;102072.34;5107317;28;20026;-66
2022/11/13 00:06:09;;;;;;;72.32;48.10;;;;;;;4.75;100.00;102085.41;5108284;28;20127;-66
2022/11/13 00:08:35;;;;;;;66.07;44.50;;;;;;;4.73;100.00;102077.50;5106560;28;20118;-66
2022/11/13 00:11:13;;;;;;;70.75;45.22;;;;;;;4.64;100.00;102067.19;5108867;28;20535;-65
2022/11/13 00:13:39;;;;;;;72.43;47.13;;;;;;;4.68;100.00;102075.94;5099109;28;20509;-65
2022/11/13 00:16:08;;;;;;;74.43;47.03;;;;;;;4.67;100.00;102072.38;5088721;28;20071;-70
2022/11/13 00:18:34;;;;;;;82.55;50.22;;;;;;;4.66;100.00;102072.44;5105840;28;20061;-70
2022/11/13 00:21:08;;;;;;;85.18;50.92;;;;;;;4.63;100.00;102068.13;5109200;28;20482;-69
2022/11/13 00:23:34;;;;;;;85.97;52.33;;;;;;;4.64;100.00;102074.28;5109686;28;20074;-70
2022/11/13 00:26:24;;;;;;;102.65;51.45;;;;;;;4.58;100.00;102075.38;5109689;28;20627;-70
2022/11/13 00:28:57;;;;;;;88.50;49.20;;;;;;;4.57;100.00;102073.63;5109503;28;20562;-70
2022/11/13 00:31:23;;;;;;;91.03;47.38;;;;;;;4.54;100.00;102065.78;5108878;28;20420;-70
2022/11/13 00:33:49;;;;;;;86.65;46.40;;;;;;;4.50;100.00;102063.28;5109281;28;20490;-70
2022/11/13 00:36:18;;;;;;;78.47;43.67;;;;;;;4.49;100.00;102074.84;5108984;28;20062;-70
2022/11/13 00:38:44;;;;;;;77.35;43.22;;;;;;;4.50;100.00;102076.56;5109450;28;20043;-69
2022/11/13 00:41:09;;;;;;;68.85;41.83;;;;;;;4.46;100.00;102080.25;5107976;28;20054;-70
2022/11/13 00:43:35;;;;;;;66.20;38.97;;;;;;;4.45;100.00;102083.84;5109059;28;20479;-70
2022/11/13 00:46:00;;;;;;;62.20;40.97;;;;;;;4.42;100.00;102071.50;5108859;28;20062;-70
2022/11/13 00:48:26;;;;;;;60.65;41.08;;;;;;;4.32;100.00;102061.28;5109059;28;20055;-70
2022/11/13 00:50:52;;;;;;;61.15;40.45;;;;;;;4.38;100.00;102076.97;5109398;28;20028;-70
2022/11/13 00:53:17;;;;;;;69.70;42.60;;;;;;;4.31;100.00;102071.03;5109154;28;20046;-70
2022/11/13 00:55:43;;;;;;;68.38;43.75;;;;;;;4.34;100.00;102078.88;5108899;28;20031;-69
2022/11/13 00:58:10;;;;;;;70.32;45.25;;;;;;;4.33;100.00;102074.47;5107686;28;20754;-70
2022/11/13 01:00:35;;;;;;;84.53;49.42;;;;;;;4.31;100.00;102071.03;5108782;28;20474;-69
2022/11/13 01:03:01;;;;;;;78.75;46.28;;;;;;;4.33;100.00;102065.66;5108203;28;20027;-69
2022/11/13 01:05:26;;;;;;;75.57;45.42;;;;;;;4.35;100.00;102063.81;5113408;28;20032;-70
2022/11/13 01:07:52;;;;;;;99.85;48.45;;;;;;;4.33;100.00;102065.66;5114726;28;20074;-67
2022/11/13 01:10:19;;;;;;;91.20;50.42;;;;;;;4.29;100.00;102056.06;5116816;28;20035;-70
2022/11/13 01:12:44;;;;;;;73.03;43.17;;;;;;;4.29;100.00;102054.25;5115076;28;20037;-70
2022/11/13 01:15:10;;;;;;;62.83;38.55;;;;;;;4.35;100.00;102067.34;5115184;28;20028;-70
2022/11/13 01:17:35;;;;;;;63.85;37.80;;;;;;;4.29;100.00;102053.41;5115468;28;20083;-69
2022/11/13 01:20:00;;;;;;;67.03;40.65;;;;;;;4.26;100.00;102062.31;5114745;28;20032;-70
2022/11/13 01:22:26;;;;;;;63.47;37.80;;;;;;;4.24;100.00;102053.56;5113269;28;20023;-70
2022/11/13 01:24:51;;;;;;;60.92;37.50;;;;;;;4.19;100.00;102039.56;5113285;28;20035;-70
2022/11/13 01:27:17;;;;;;;50.40;34.97;;;;;;;4.26;100.00;102050.88;5113174;28;20114;-70
2022/11/13 01:29:42;;;;;;;53.03;35.42;;;;;;;4.27;100.00;102057.91;5113065;28;20081;-69
2022/11/13 01:32:08;;;;;;;52.08;35.20;;;;;;;4.23;100.00;102046.50;5110335;28;20020;-69
2022/11/13 01:34:34;;;;;;;59.72;36.00;;;;;;;4.20;100.00;102046.59;5112386;28;20100;-70
2022/11/13 01:36:59;;;;;;;55.53;35.35;;;;;;;4.19;100.00;102049.31;5111521;28;20027;-69
2022/11/13 01:39:25;;;;;;;59.95;37.40;;;;;;;4.14;100.00;102041.53;5111983;28;20110;-69
2022/11/13 01:41:50;;;;;;;68.22;39.97;;;;;;;4.11;100.00;102040.75;5111883;28;20035;-64
2022/11/13 01:44:18;;;;;;;57.95;36.55;;;;;;;4.04;100.00;102034.78;5111606;28;20020;-64
2022/11/13 01:46:54;;;;;;;61.38;36.22;;;;;;;4.05;100.00;102039.19;5111724;28;20403;-69
2022/11/13 01:49:28;;;;;;;53.15;33.15;;;;;;;4.09;100.00;102042.56;5112196;28;20039;-69
2022/11/13 01:52:05;;;;;;;44.58;30.48;;;;;;;4.08;100.00;102036.41;5110931;28;20047;-69
2022/11/13 01:54:35;;;;;;;44.70;28.95;;;;;;;3.99;100.00;102023.44;5110487;28;20032;-68
2022/11/13 01:57:02;;;;;;;41.28;28.20;;;;;;;4.04;100.00;102033.91;5110047;28;20023;-69
2022/11/13 01:59:33;;;;;;;40.03;27.20;;;;;;;4.02;100.00;102022.47;5111593;28;20105;-69
2022/11/13 02:01:59;;;;;;;45.33;29.52;;;;;;;4.04;100.00;102039.22;5109996;28;20022;-70
2022/11/13 02:04:25;;;;;;;39.80;28.48;;;;;;;4.02;100.00;102031.31;5109906;28;20039;-70
2022/11/13 02:07:00;;;;;;;48.10;30.05;;;;;;;4.02;100.00;102028.66;5110051;28;20387;-70
2022/11/13 02:09:29;;;;;;;43.78;29.83;;;;;;;4.05;100.00;102027.69;5111631;28;20065;-69
2022/11/13 02:11:55;;;;;;;44.75;30.23;;;;;;;4.02;100.00;102019.81;5112047;28;20437;-70
2022/11/13 02:14:24;;;;;;;45.30;30.27;;;;;;;4.04;100.00;102024.19;5110862;28;20461;-69
2022/11/13 02:16:55;;;;;;;39.90;29.05;;;;;;;4.05;100.00;102014.41;5110875;28;20019;-68
2022/11/13 02:19:39;;;;;;;44.05;29.70;;;;;;;4.10;100.00;102026.59;5111609;27;20031;-69
2022/11/13 02:22:13;;;;;;;;;;;;;;;4.07;100.00;102025.84;5111746;28;20528;-69
2022/11/13 02:24:42;;;;;;;39.33;27.65;;;;;;;4.08;100.00;102022.28;5111469;28;20010;-70
2022/11/13 02:27:14;;;;;;;53.35;31.02;;;;;;;4.02;100.00;102025.13;5111697;28;20031;-69
2022/11/13 02:29:40;;;;;;;54.67;34.95;;;;;;;4.05;100.00;102023.25;5109903;28;20486;-69
2022/11/13 02:32:05;;;;;;;58.17;35.75;;;;;;;4.03;100.00;102024.22;5110060;28;20086;-70
2022/11/13 02:34:31;;;;;;;53.88;33.65;;;;;;;4.02;100.00;102015.38;5111447;28;20051;-68
2022/11/13 02:36:56;;;;;;;46.55;30.88;;;;;;;4.07;100.00;102023.19;5111271;28;20028;-69
2022/11/13 02:39:21;;;;;;;52.35;30.20;;;;;;;3.98;100.00;102021.72;5111056;28;20498;-70
2022/11/13 02:41:47;;;;;;;46.55;29.25;;;;;;;4.00;100.00;102019.03;5110797;28;20517;-69
2022/11/13 02:44:12;;;;;;;40.45;27.35;;;;;;;4.06;100.00;102027.63;5110576;28;20031;-70
2022/11/13 02:46:38;;;;;;;35.85;26.42;;;;;;;4.06;100.00;102030.28;5110513;28;20482;-71
2022/11/13 02:49:03;;;;;;;34.13;27.00;;;;;;;4.11;100.00;102028.34;5110102;28;20073;-64
2022/11/13 02:51:29;;;;;;;33.08;25.48;;;;;;;4.10;100.00;102028.41;5110906;28;20023;-64
2022/11/13 02:53:54;;;;;;;33.75;25.25;;;;;;;4.05;100.00;102015.28;5110688;28;20028;-65
2022/11/13 02:56:20;;;;;;;34.30;25.83;;;;;;;4.07;100.00;102033.81;5109375;28;20019;-64
2022/11/13 02:58:45;;;;;;;33.92;25.85;;;;;;;4.03;100.00;102025.06;5109991;28;20035;-65
2022/11/13 03:01:11;;;;;;;30.52;24.83;;;;;;;4.04;100.00;102033.91;5110343;28;20072;-64
2022/11/13 03:03:36;;;;;;;33.80;23.50;;;;;;;3.95;100.00;102019.16;5109971;28;20114;-65
2022/11/13 03:06:02;;;;;;;33.92;22.70;;;;;;;3.98;100.00;102037.66;5110319;28;20130;-65
2022/11/13 03:08:27;;;;;;;31.38;23.27;;;;;;;3.93;100.00;102036.03;5110330;28;20031;-64
2022/11/13 03:10:53;;;;;;;33.25;24.55;;;;;;;3.87;100.00;102033.63;5110576;28;20466;-65
2022/11/13 03:13:19;;;;;;;30.73;23.90;;;;;;;3.87;100.00;102037.13;5110183;28;20027;-64
2022/11/13 03:15:45;;;;;;;37.28;25.30;;;;;;;3.84;100.00;102039.03;5110170;28;20028;-64
2022/11/13 03:18:11;;;;;;;34.58;25.77;;;;;;;3.82;100.00;102039.06;5109854;27;20021;-65
2022/11/13 03:20:38;;;;;;;30.40;24.17;;;;;;;3.81;100.00;102037.31;5108639;28;20038;-65
2022/11/13 03:23:04;;;;;;;33.85;25.30;;;;;;;3.82;100.00;102036.41;5109415;28;20047;-65
2022/11/13 03:25:30;;;;;;;32.35;24.42;;;;;;;3.79;100.00;102033.00;5108499;28;20058;-65
2022/11/13 03:27:55;;;;;;;32.92;24.80;;;;;;;3.77;100.00;102025.06;5110026;28;20051;-66
2022/11/13 03:30:21;;;;;;;31.90;24.80;;;;;;;3.74;100.00;102027.81;5109835;28;20063;-65
2022/11/13 03:32:46;;;;;;;28.85;24.05;;;;;;;3.76;100.00;102033.97;5109962;28;20027;-65
2022/11/13 03:35:12;;;;;;;31.38;24.17;;;;;;;3.69;100.00;102018.28;5108515;28;20043;-65
2022/11/13 03:37:37;;;;;;;27.92;22.73;;;;;;;3.71;100.00;102019.13;5109905;28;20019;-65
2022/11/13 03:40:03;;;;;;;25.80;21.23;;;;;;;3.70;100.00;102027.97;5110037;28;20114;-65
2022/11/13 03:42:28;;;;;;;29.73;22.38;;;;;;;3.68;100.00;102020.06;5110081;28;20379;-65
2022/11/13 03:44:54;;;;;;;29.08;22.95;;;;;;;3.63;100.00;102015.84;5109885;28;20529;-65
2022/11/13 03:47:19;;;;;;;27.83;22.52;;;;;;;3.66;100.00;102011.31;5109555;28;20048;-65
2022/11/13 03:49:45;;;;;;;30.05;22.48;;;;;;;3.65;100.00;102008.69;5108837;28;20114;-70
2022/11/13 03:52:10;;;;;;;29.98;22.92;;;;;;;3.71;100.00;102024.44;5108948;28;20036;-70
2022/11/13 03:54:35;;;;;;;28.15;21.95;;;;;;;3.67;100.00;102021.00;5109404;28;20165;-65
2022/11/13 03:57:01;;;;;;;29.48;22.40;;;;;;;3.60;100.00;102016.81;5109685;28;20042;-65
2022/11/13 03:59:26;;;;;;;30.77;23.50;;;;;;;3.65;100.00;102021.97;5107915;28;20088;-64
2022/11/13 04:01:52;;;;;;;34.78;24.90;;;;;;;3.64;100.00;102012.28;5108868;28;20114;-65
2022/11/13 04:04:17;;;;;;;34.95;25.90;;;;;;;3.63;100.00;102021.13;5109405;28;20103;-65
2022/11/13 04:06:43;;;;;;;32.50;25.13;;;;;;;3.65;100.00;102025.47;5107987;28;20038;-64
2022/11/13 04:09:08;;;;;;;36.30;25.30;;;;;;;3.63;100.00;102023.78;5108194;28;20109;-65
2022/11/13 04:11:34;;;;;;;38.50;27.15;;;;;;;3.60;100.00;102015.94;5109795;28;20024;-64
2022/11/13 04:13:59;;;;;;;36.90;25.00;;;;;;;3.62;100.00;102024.72;5109842;28;20042;-64
2022/11/13 04:16:24;;;;;;;40.22;27.35;;;;;;;3.59;100.00;102019.50;5109139;28;20023;-70
2022/11/13 04:18:50;;;;;;;39.10;27.73;;;;;;;3.59;100.00;102024.81;5108306;28;20077;-69
2022/11/13 04:21:15;;;;;;;37.28;26.77;;;;;;;3.55;100.00;102012.56;5108877;28;20382;-70
2022/11/13 04:23:41;;;;;;;38.15;27.58;;;;;;;3.55;100.00;102020.53;5109042;28;20034;-65
2022/11/13 04:26:06;;;;;;;38.28;27.02;;;;;;;3.48;100.00;102013.69;5107279;28;20026;-65
2022/11/13 04:28:32;;;;;;;40.38;26.13;;;;;;;3.48;100.00;102021.66;5108422;28;20054;-65
2022/11/13 04:30:57;;;;;;;33.10;24.42;;;;;;;3.47;100.00;102025.19;5108813;28;20078;-65
2022/11/13 04:33:22;;;;;;;36.20;25.38;;;;;;;3.42;100.00;102011.22;5107834;28;20069;-65
2022/11/13 04:35:48;;;;;;;34.55;24.55;;;;;;;3.48;100.00;102017.19;5108909;28;20046;-64
2022/11/13 04:38:14;;;;;;;36.08;24.40;;;;;;;3.47;100.00;102023.41;5108610;28;20030;-64
2022/11/13 04:40:40;;;;;;;41.22;28.10;;;;;;;3.46;100.00;102015.50;5113205;28;20475;-65
2022/11/13 04:43:06;;;;;;;39.10;26.27;;;;;;;3.48;100.00;102009.22;5111871;28;20030;-64
2022/11/13 04:45:32;;;;;;;40.92;26.25;;;;;;;3.46;100.00;102008.44;5113551;28;20020;-64
2022/11/13 04:47:57;;;;;;;40.17;26.02;;;;;;;3.49;100.00;102004.81;5112622;28;20403;-64
2022/11/13 04:50:23;;;;;;;37.92;26.60;;;;;;;3.49;100.00;102007.47;5113077;28;20040;-64
2022/11/13 04:52:48;;;;;;;40.30;27.60;;;;;;;3.48;100.00;101995.13;5111689;28;20034;-64
2022/11/13 04:55:14;;;;;;;36.20;25.75;;;;;;;3.54;100.00;102010.81;5113065;28;20034;-64
2022/11/13 04:57:40;;;;;;;38.95;26.38;;;;;;;3.53;100.00;102002.00;5112887;28;20055;-65
2022/11/13 05:00:07;;;;;;;38.75;24.67;;;;;;;3.52;100.00;101996.75;5111464;28;20379;-65
2022/11/13 05:02:34;;;;;;;45.30;25.35;;;;;;;3.50;100.00;101993.28;5113154;28;20035;-64
2022/11/13 05:05:00;;;;;;;38.25;26.38;;;;;;;3.51;100.00;101997.69;5113269;28;20043;-64
2022/11/13 05:07:26;;;;;;;42.10;25.63;;;;;;;3.52;100.00;101983.50;5112998;28;20035;-64
2022/11/13 05:09:52;;;;;;;35.03;23.55;;;;;;;3.51;100.00;101974.66;5113145;28;20023;-64
2022/11/13 05:12:18;;;;;;;45.13;25.98;;;;;;;3.51;100.00;101974.66;5113191;28;20497;-64
2022/11/13 05:14:43;;;;;;;38.63;24.45;;;;;;;3.57;100.00;101984.19;5112454;28;20035;-65
2022/11/13 05:17:10;;;;;;;34.45;23.83;;;;;;;3.58;100.00;101983.28;5112548;28;20024;-65
2022/11/13 05:19:36;;;;;;;39.05;24.27;;;;;;;3.48;100.00;101969.44;5112438;28;20016;-65
2022/11/13 05:22:03;;;;;;;39.08;23.95;;;;;;;3.48;100.00;101972.09;5112767;28;20125;-64
2022/11/13 05:24:29;;;;;;;39.17;24.95;;;;;;;3.43;100.00;101952.84;5112153;28;20028;-65
2022/11/13 05:26:54;;;;;;;32.75;22.63;;;;;;;3.50;100.00;101969.41;5112175;28;20107;-65
2022/11/13 05:29:20;;;;;;;37.38;24.67;;;;;;;3.49;100.00;101965.91;5111699;28;20032;-70
2022/11/13 05:31:46;;;;;;;36.80;24.02;;;;;;;3.49;100.00;101963.25;5110551;28;20028;-68
2022/11/13 05:34:11;;;;;;;41.83;24.42;;;;;;;3.51;100.00;101971.16;5111697;28;20035;-68
2022/11/13 05:36:37;;;;;;;32.63;23.92;;;;;;;3.44;100.00;101954.56;5112350;28;20118;-70
2022/11/13 05:39:03;;;;;;;38.17;24.58;;;;;;;3.51;100.00;101973.81;5112945;28;20019;-70
2022/11/13 05:41:29;;;;;;;35.08;23.35;;;;;;;3.49;100.00;101967.69;5112890;28;20487;-70
2022/11/13 05:43:54;;;;;;;39.90;23.67;;;;;;;3.42;100.00;101968.78;5112345;28;20027;-69
2022/11/13 05:46:22;;;;;;;37.53;23.33;;;;;;;3.41;100.00;101970.56;5112079;28;20101;-69
2022/11/13 05:48:52;;;;;;;35.60;23.15;;;;;;;3.46;100.00;101979.25;5112286;28;20035;-70
2022/11/13 05:51:21;;;;;;;35.78;22.65;;;;;;;3.48;100.00;101992.47;5111127;28;20519;-69
2022/11/13 05:53:47;;;;;;;37.90;23.35;;;;;;;3.46;100.00;101987.22;5112174;28;20470;-70
2022/11/13 05:56:19;;;;;;;35.83;23.35;;;;;;;3.46;100.00;101983.69;5110423;28;20035;-70
2022/11/13 05:58:45;;;;;;;33.97;22.73;;;;;;;3.47;100.00;101993.38;5111332;28;20432;-70
2022/11/13 06:01:27;;;;;;;35.88;23.15;;;;;;;3.51;100.00;102005.63;5110360;28;20023;-71
2022/11/13 06:03:55;;;;;;;36.10;24.65;;;;;;;3.41;100.00;101997.09;5111479;28;20023;-71
2022/11/13 06:06:21;;;;;;;34.00;22.75;;;;;;;3.41;100.00;101997.09;5110270;28;20066;-70
2022/11/13 06:08:48;;;;;;;42.10;24.05;;;;;;;3.45;100.00;102003.19;5111196;28;20020;-71
2022/11/13 06:11:16;;;;;;;41.20;24.70;;;;;;;3.50;100.00;102014.50;5111334;28;20027;-70
2022/11/13 06:13:42;;;;;;;41.13;24.38;;;;;;;3.46;100.00;102000.47;5111147;28;20027;-70
2022/11/13 06:16:11;;;;;;;32.78;22.25;;;;;;;3.52;100.00;102013.50;5111463;28;20023;-71
2022/11/13 06:18:38;;;;;;;36.42;23.10;;;;;;;3.57;100.00;102016.03;5111244;27;20111;-70
2022/11/13 06:21:09;;;;;;;30.13;22.45;;;;;;;3.48;100.00;101997.78;5109771;28;20395;-70
2022/11/13 06:23:37;;;;;;;28.25;20.35;;;;;;;3.57;100.00;102016.91;5111065;28;20028;-70
2022/11/13 06:26:05;;;;;;;31.58;22.63;;;;;;;3.60;100.00;102026.53;5112034;28;20032;-70
2022/11/13 06:28:31;;;;;;;31.60;22.13;;;;;;;3.61;100.00;102026.50;5111800;28;20547;-69
2022/11/13 06:31:11;;;;;;;30.27;21.77;;;;;;;3.63;100.00;102015.84;5111570;28;20485;-70
2022/11/13 06:33:38;;;;;;;28.92;21.65;;;;;;;3.70;100.00;102022.66;5110586;28;20391;-71
2022/11/13 06:36:05;;;;;;;30.52;21.48;;;;;;;3.75;100.00;102026.06;5110934;28;20490;-64
2022/11/13 06:38:36;;;;;;;32.25;22.65;;;;;;;3.77;100.00;102019.78;5109610;28;20028;-65
2022/11/13 06:41:03;;;;;;;40.05;27.02;;;;;;;3.84;100.00;102026.59;5110554;28;20035;-64
2022/11/13 06:43:29;;;;;;;69.88;42.90;;;;;;;3.91;100.00;102021.97;5109604;28;20039;-65
2022/11/13 06:45:56;;;;;;;56.50;35.92;;;;;;;3.94;100.00;102022.72;5109068;28;20390;-65
2022/11/13 06:48:22;;;;;;;49.88;33.63;;;;;;;4.04;100.00;102018.88;5110182;28;20044;-65
2022/11/13 06:50:48;;;;;;;42.28;30.65;;;;;;;4.10;100.00;102028.41;5110503;28;20534;-65
2022/11/13 06:53:13;;;;;;;45.63;29.05;;;;;;;4.14;100.00;102003.47;5109285;28;20180;-65
2022/11/13 06:55:47;;;;;;;37.60;26.63;;;;;;;4.32;100.00;102014.31;5110572;28;20039;-70
2022/11/13 06:58:13;;;;;;;41.70;27.27;;;;;;;4.32;100.00;102009.00;5112388;28;20099;-68
2022/11/13 07:00:40;;;;;;;48.70;29.00;;;;;;;4.55;100.00;102016.16;5115321;28;20181;-68
2022/11/13 07:03:05;;;;;;;53.63;30.10;;;;;;;4.57;100.00;102014.31;5112557;28;20149;-71
2022/11/13 07:05:30;;;;;;;53.10;32.10;;;;;;;4.62;100.00;102021.19;5110065;28;20123;-70
2022/11/13 07:07:56;;;;;;;53.30;31.52;;;;;;;4.70;100.00;102015.59;5110912;28;20027;-70
2022/11/13 07:10:21;;;;;;;53.38;31.55;;;;;;;4.83;100.00;102035.47;5111452;28;20117;-70
2022/11/13 07:12:47;;;;;;;55.60;31.10;;;;;;;4.92;100.00;102031.59;5111178;28;20038;-70
2022/11/13 07:15:15;;;;;;;56.53;32.75;;;;;;;4.93;100.00;102028.91;5111047;28;20020;-70
2022/11/13 07:17:40;;;;;;;56.75;32.67;;;;;;;4.95;100.00;102004.91;5111028;28;20123;-70
2022/11/13 07:20:06;;;;;;;61.95;32.80;;;;;;;5.17;100.00;102027.09;5110863;28;20065;-71
2022/11/13 07:22:32;;;;;;;63.28;32.72;;;;;;;5.22;100.00;102025.16;5111059;28;20035;-70
2022/11/13 07:24:57;;;;;;;61.08;32.75;;;;;;;5.33;100.00;102022.94;5109543;28;20065;-70
2022/11/13 07:27:23;;;;;;;64.82;33.83;;;;;;;5.42;100.00;102026.06;5111118;28;20089;-71
2022/11/13 07:29:49;;;;;;;66.47;38.45;;;;;;;5.50;100.00;102021.34;5109546;28;20035;-70
2022/11/13 07:32:14;;;;;;;70.72;39.15;;;;;;;5.61;100.00;102020.91;5110642;28;20558;-70
2022/11/13 07:34:39;;;;;;;66.50;38.70;;;;;;;5.67;100.00;102013.53;5109532;28;20028;-71
2022/11/13 07:37:07;;;;;;;60.22;35.00;;;;;;;5.78;100.00;102011.31;5107273;28;20047;-71
2022/11/13 07:39:33;;;;;;;56.65;33.80;;;;;;;5.87;100.00;102008.28;5110750;28;20138;-70
2022/11/13 07:41:58;;;;;;;53.38;32.75;;;;;;;5.95;100.00;101994.66;5110755;28;20020;-70
2022/11/13 07:44:24;;;;;;;52.53;33.05;;;;;;;6.07;100.00;101994.13;5110480;28;20098;-71
2022/11/13 07:46:49;;;;;;;49.85;31.77;;;;;;;6.18;100.00;101999.88;5110248;28;20134;-70
2022/11/13 07:49:15;;;;;;;53.00;32.35;;;;;;;6.22;100.00;102002.34;5110702;28;20024;-70
2022/11/13 07:51:41;;;;;;;48.25;29.83;;;;;;;6.28;100.00;101994.06;5110831;28;20057;-71
2022/11/13 07:54:07;;;;;;;38.15;26.27;;;;;;;6.38;100.00;102000.72;5111415;28;20019;-71
2022/11/13 07:56:32;;;;;;;42.20;25.92;;;;;;;6.48;100.00;102003.88;5111530;28;20063;-71
2022/11/13 07:58:58;;;;;;;42.63;26.70;;;;;;;6.58;100.00;101997.19;5110092;28;20027;-71
2022/11/13 08:01:23;;;;;;;37.38;24.27;;;;;;;6.62;100.00;101999.63;5111017;28;20030;-71
2022/11/13 08:03:49;;;;;;;34.92;24.10;;;;;;;6.66;100.00;102003.03;5111395;28;20030;-70
2022/11/13 08:06:14;;;;;;;40.45;25.63;;;;;;;6.63;100.00;101988.06;5111056;28;20039;-71
2022/11/13 08:08:40;;;;;;;43.35;26.95;;;;;;;6.69;100.00;101995.78;5109698;28;20081;-71
2022/11/13 08:11:07;;;;;;;43.33;26.40;;;;;;;6.76;100.00;101993.69;5109328;28;20054;-71
2022/11/13 08:13:34;;;;;;;40.20;26.52;;;;;;;6.79;100.00;101999.75;5110172;28;20106;-71
2022/11/13 08:16:00;;;;;;;42.97;27.95;;;;;;;6.86;100.00;102008.34;5110366;28;20423;-70
2022/11/13 08:18:27;;;;;;;42.70;27.73;;;;;;;6.86;100.00;101987.00;5108631;28;20138;-71
2022/11/13 08:20:53;;;;;;;41.60;27.80;;;;;;;7.03;100.00;101997.75;5110185;28;20028;-71
2022/11/13 08:23:18;;;;;;;47.45;28.55;;;;;;;7.04;100.00;101986.16;5110352;28;20061;-71
2022/11/13 08:25:43;;;;;;;45.08;29.85;;;;;;;7.15;100.00;101985.66;5110176;28;20132;-71
2022/11/13 08:28:09;;;;;;;47.47;30.60;;;;;;;7.24;100.00;101986.06;5109323;28;20085;-72
2022/11/13 08:30:34;;;;;;;44.70;30.08;;;;;;;7.33;100.00;101990.97;5110575;28;20028;-71
2022/11/13 08:33:01;;;;;;;46.15;28.35;;;;;;;7.40;100.00;101981.75;5110552;28;20036;-71
2022/11/13 08:35:27;;;;;;;48.35;30.83;;;;;;;7.47;100.00;101983.16;5111963;28;20490;-72
2022/11/13 08:37:52;;;;;;;48.38;30.02;;;;;;;7.58;100.00;101996.00;5109122;28;20184;-72
2022/11/13 08:40:18;;;;;;;45.42;30.08;;;;;;;7.58;100.00;102001.34;5110486;28;20055;-72
2022/11/13 08:42:43;;;;;;;43.72;28.73;;;;;;;7.62;100.00;101995.78;5110127;28;20028;-72
2022/11/13 08:45:09;;;;;;;42.42;27.00;;;;;;;7.76;100.00;101993.28;5110054;28;20023;-71
2022/11/13 08:47:35;;;;;;;42.85;28.35;;;;;;;7.90;100.00;101998.78;5108270;28;20558;-71
2022/11/13 08:50:01;;;;;;;39.70;27.40;;;;;;;7.98;100.00;102001.09;5109687;28;20032;-71
2022/11/13 08:52:27;;;;;;;41.70;29.13;;;;;;;8.11;100.00;101995.06;5109690;28;20027;-72
2022/11/13 08:54:53;;;;;;;42.67;29.40;;;;;;;8.27;100.00;101993.34;5108555;28;20355;-71
2022/11/13 08:57:19;;;;;;;40.30;28.10;;;;;;;8.34;100.00;102004.56;5108311;28;20043;-72
2022/11/13 08:59:44;;;;;;;50.58;31.63;;;;;;;8.31;100.00;101988.69;5108107;28;20428;-71
2022/11/13 09:02:14;;;;;;;50.15;31.05;;;;;;;8.36;100.00;102008.06;5109591;28;20032;-71
2022/11/13 09:04:40;;;;;;;47.20;32.70;;;;;;;8.37;100.00;101999.94;5109728;28;20055;-71
2022/11/13 09:07:05;;;;;;;52.00;34.72;;;;;;;8.44;100.00;102008.50;5109975;28;20023;-71
2022/11/13 09:09:31;;;;;;;54.22;35.15;;;;;;;8.48;100.00;101999.41;5109639;28;20034;-71
2022/11/13 09:11:57;;;;;;;53.30;35.03;;;;;;;8.55;100.00;101998.13;5109135;28;20191;-71
2022/11/13 09:14:23;;;;;;;60.22;38.20;;;;;;;8.55;100.00;101992.78;5108966;28;20110;-71
2022/11/13 09:16:49;;;;;;;62.00;40.97;;;;;;;8.58;100.00;101993.47;5109357;28;20093;-71
2022/11/13 09:19:14;;;;;;;64.55;40.63;;;;;;;8.59;100.00;101991.66;5109455;28;20016;-71
2022/11/13 09:21:40;;;;;;;58.53;39.33;;;;;;;8.61;100.00;101976.41;5109226;28;20043;-71
2022/11/13 09:24:06;;;;;;;61.40;39.92;;;;;;;8.74;100.00;101990.84;5108370;28;20111;-72
2022/11/13 09:26:32;;;;;;;61.92;39.00;;;;;;;8.90;100.00;101987.25;5112854;28;20039;-71
2022/11/13 09:28:58;;;;;;;58.28;37.70;;;;;;;8.93;100.00;101988.88;5112277;28;20493;-71
2022/11/13 09:31:23;;;;;;;59.33;37.30;;;;;;;8.99;100.00;101983.19;5111093;28;20035;-71
2022/11/13 09:33:49;;;;;;;59.20;39.33;;;;;;;9.09;100.00;101985.31;5113122;28;20034;-71
2022/11/13 09:36:15;;;;;;;59.28;39.33;;;;;;;9.10;100.00;101984.34;5111342;28;20040;-72
2022/11/13 09:38:40;;;;;;;55.75;37.42;;;;;;;9.09;100.00;101976.41;5112988;28;20031;-71
2022/11/13 09:41:30;;;;;;;51.47;35.20;;;;;;;9.14;100.00;101972.53;5106850;28;20027;-71
2022/11/13 09:44:01;;;;;;;46.17;33.15;;;;;;;9.19;100.00;101973.13;5103003;28;20024;-71
2022/11/13 09:46:39;;;;;;;52.58;34.45;;;;;;;9.32;100.00;101964.41;5106719;28;20056;-71
2022/11/13 09:49:07;;;;;;;52.45;34.80;;;;;;;9.31;100.00;101968.06;5112895;28;20023;-71
2022/11/13 09:51:36;;;;;;;42.80;30.60;;;;;;;9.30;100.00;101953.78;5112841;27;20069;-71
2022/11/13 09:54:08;;;;;;;40.72;28.83;;;;;;;9.35;100.00;101953.53;5112252;28;20072;-71
2022/11/13 09:56:39;;;;;;;42.70;30.60;;;;;;;9.36;100.00;101950.78;5112450;28;20091;-71
2022/11/13 09:59:29;;;;;;;43.60;29.83;;;;;;;9.43;100.00;101953.94;5112596;28;20521;-70
2022/11/13 10:02:13;;;;;;;43.42;29.25;;;;;;;9.40;100.00;101946.97;5112350;28;20035;-70
2022/11/13 10:04:57;;;;;;;40.90;28.55;;;;;;;9.42;100.00;101947.75;5112820;28;20027;-71
2022/11/13 10:07:28;;;;;;;42.40;31.35;;;;;;;9.43;100.00;101945.91;5112229;28;20043;-70
2022/11/13 10:10:18;;;;;;;41.70;29.52;;;;;;;9.48;100.00;101946.53;5110640;28;20455;-70
2022/11/13 10:12:47;;;;;;;39.65;29.17;;;;;;;9.56;100.00;101934.41;5111833;28;20127;-70
2022/11/13 10:15:16;;;;;;;44.05;30.08;;;;;;;9.59;100.00;101931.56;5111912;28;20483;-70
2022/11/13 10:18:10;;;;;;;46.95;31.13;;;;;;;9.65;100.00;101939.25;5111874;28;20398;-71
2022/11/13 10:20:43;;;;;;;48.10;31.88;;;;;;;9.69;100.00;101922.03;5111285;28;20039;-70
2022/11/13 10:23:19;;;;;;;43.97;31.50;;;;;;;9.77;100.00;101913.56;5112315;28;20042;-70
2022/11/13 10:25:45;;;;;;;48.45;32.55;;;;;;;9.81;100.00;101918.63;5111650;28;20031;-70
2022/11/13 10:28:16;;;;;;;45.92;32.67;;;;;;;9.93;100.00;101914.38;5110596;28;20492;-70
2022/11/13 10:30:41;;;;;;;48.90;33.13;;;;;;;9.95;100.00;101918.69;5111957;28;20037;-70
2022/11/13 10:33:13;;;;;;;43.90;31.13;;;;;;;10.01;100.00;101915.63;5112004;27;20106;-70
2022/11/13 10:35:40;;;;;;;46.72;33.00;;;;;;;9.98;100.00;101907.78;5111065;28;20032;-70
2022/11/13 10:38:21;;;;;;;40.30;29.52;;;;;;;10.09;100.00;101916.06;5111474;28;20050;-70
2022/11/13 10:40:46;;;;;;;50.55;33.03;;;;;;;10.09;100.00;101910.69;5109957;28;20566;-70
2022/11/13 10:43:14;;;;;;;46.25;31.27;;;;;;;10.13;100.00;101904.16;5111781;28;20123;-70
2022/11/13 10:45:41;;;;;;;46.85;33.47;;;;;;;10.06;100.00;101892.09;5109867;28;20031;-71
2022/11/13 10:48:29;;;;;;;45.60;30.88;;;;;;;10.09;100.00;101894.59;5110847;28;20409;-70
2022/11/13 10:51:02;;;;;;;45.58;32.17;;;;;;;10.06;100.00;101889.41;5111187;28;20027;-70
2022/11/13 10:53:38;;;;;;;45.55;32.10;;;;;;;10.02;100.00;101877.13;5110339;28;20106;-70
2022/11/13 10:56:31;;;;;;;43.85;30.52;;;;;;;10.10;100.00;101887.44;5109052;28;20023;-69
2022/11/13 10:59:13;;;;;;;38.40;26.65;;;;;;;10.11;100.00;101881.97;5089836;28;20111;-69
2022/11/13 11:01:40;;;;;;;33.70;23.95;;;;;;;10.13;100.00;101885.41;5092646;28;20070;-69
2022/11/13 11:04:10;;;;;;;35.70;25.38;;;;;;;10.14;100.00;101870.19;5103111;28;20035;-69
2022/11/13 11:06:38;;;;;;;38.00;26.08;;;;;;;10.18;100.00;101869.91;5100871;28;20734;-69
2022/11/13 11:09:14;;;;;;;38.08;25.85;;;;;;;10.17;100.00;101864.66;5097611;28;20470;-68
2022/11/13 11:14:40;;;;;;;41.15;28.13;;;;;;;10.25;100.00;101871.25;5096572;28;20518;-69